< < Back
Terminal Aerodrome Forecast


Current Version              Previous Versions:   1  2  3  4  5  6  7  8  9  

Terminal Aerodrome Forecast

839
FTUS44 KBMX 251740
TAFANB
TAF
KANB 251740Z 2518/2618 14009G14KT P6SM VCSH SCT025 BKN035 BKN120
      TEMPO 2518/2520 BKN025 OVC120
     FM252000 14008KT 6SM -SHRA VCTS BKN030CB BKN040
     FM252100 13008KT 3SM TSRA BKN030CB
     FM260100 11006KT P6SM SHRA VCTS SCT025 BKN040CB
     FM260300 08005KT P6SM SCT015 BKN050
     FM261200 11007KT P6SM OVC015=

Latest METAR

165
SAUS70 KWBC 252300 RRA
MTRANB
METAR KANB 252253Z AUTO 00000KT 10SM -RA BKN120 21/19 A3019 RMK AO2
SLP219 P0003 T02060189


USA.gov is the U.S. government's official web portal to all federal, state and local government web resources and services.